createdAt,value
2023-06-29T00:01:08.853Z,1.70
2023-06-29T00:03:36.496Z,1.50
2023-06-29T00:08:16.083Z,1.20
2023-06-29T00:10:44.841Z,1.50
2023-06-29T00:13:12.605Z,1.60
2023-06-29T00:15:40.477Z,1.70
2023-06-29T00:18:10.490Z,1.90
2023-06-29T00:20:38.069Z,1.70
2023-06-29T00:23:05.690Z,1.80
2023-06-29T00:25:36.148Z,1.80
2023-06-29T00:28:03.961Z,2.10
2023-06-29T00:30:31.966Z,1.50
2023-06-29T00:32:59.646Z,1.40
2023-06-29T00:35:27.259Z,1.80
2023-06-29T00:37:55.082Z,1.40
2023-06-29T00:40:22.746Z,1.70
2023-06-29T00:42:50.519Z,1.90
2023-06-29T00:45:18.115Z,1.90
2023-06-29T00:47:45.792Z,1.60
2023-06-29T00:50:13.479Z,2.10
2023-06-29T00:52:41.477Z,2.10
2023-06-29T00:55:09.466Z,1.80
2023-06-29T00:57:39.571Z,1.90
2023-06-29T01:00:13.240Z,2.10
2023-06-29T01:02:41.972Z,2.40
2023-06-29T01:05:13.225Z,1.90
2023-06-29T01:08:06.531Z,1.70
2023-06-29T01:10:34.089Z,1.80
2023-06-29T01:13:02.980Z,1.90
2023-06-29T01:15:31.686Z,1.60
2023-06-29T01:18:00.035Z,1.90
2023-06-29T01:20:27.755Z,2.30
2023-06-29T01:23:06.357Z,2.10
2023-06-29T01:25:34.271Z,1.90
2023-06-29T01:28:06.831Z,2.10
2023-06-29T01:30:49.973Z,2.30
2023-06-29T01:33:20.015Z,2.20
2023-06-29T01:35:47.697Z,2.30
2023-06-29T01:38:39.016Z,2.50
2023-06-29T01:41:08.171Z,2.70
2023-06-29T01:43:35.752Z,2.60
2023-06-29T01:46:03.412Z,2.50
2023-06-29T01:48:30.902Z,2.70
2023-06-29T01:50:58.715Z,2.40
2023-06-29T01:53:26.246Z,3.00
2023-06-29T01:55:54.010Z,3.30
2023-06-29T01:58:21.481Z,2.70
2023-06-29T02:00:49.002Z,2.60
2023-06-29T02:03:16.617Z,2.60
2023-06-29T02:05:44.657Z,2.80
2023-06-29T02:08:12.370Z,2.60
2023-06-29T02:10:40.918Z,2.70
2023-06-29T02:13:08.390Z,3.20
2023-06-29T02:15:35.920Z,3.10
2023-06-29T02:18:06.884Z,2.20
2023-06-29T02:20:34.617Z,2.20
2023-06-29T02:23:02.112Z,2.10
2023-06-29T02:25:29.607Z,2.20
2023-06-29T02:27:57.059Z,2.60
2023-06-29T02:30:24.528Z,2.30
2023-06-29T02:32:52.139Z,2.10
2023-06-29T02:35:19.726Z,1.90
2023-06-29T02:37:47.334Z,2.00
2023-06-29T02:40:14.946Z,2.60
2023-06-29T02:42:43.409Z,2.20
2023-06-29T02:45:11.910Z,2.20
2023-06-29T02:47:39.772Z,1.80
2023-06-29T02:50:07.733Z,1.70
2023-06-29T02:52:43.494Z,2.20
2023-06-29T02:55:11.054Z,2.10
2023-06-29T02:57:38.751Z,2.30
2023-06-29T03:00:09.544Z,2.30
2023-06-29T03:02:37.198Z,2.70
2023-06-29T03:05:04.984Z,2.40
2023-06-29T03:07:33.822Z,2.30
2023-06-29T03:10:02.920Z,2.50
2023-06-29T03:12:30.826Z,2.20
2023-06-29T03:14:58.394Z,2.60
2023-06-29T03:17:25.966Z,3.20
2023-06-29T03:19:53.631Z,2.70
2023-06-29T03:22:21.134Z,2.90
2023-06-29T03:24:48.591Z,3.00
2023-06-29T03:27:16.032Z,2.80
2023-06-29T03:29:43.564Z,3.40
2023-06-29T03:32:10.993Z,2.50
2023-06-29T03:34:38.559Z,2.60
2023-06-29T03:37:06.199Z,3.00
2023-06-29T03:39:33.640Z,2.60
2023-06-29T03:42:01.118Z,2.90
2023-06-29T03:44:28.657Z,2.90
2023-06-29T03:46:56.178Z,2.70
2023-06-29T03:49:23.779Z,2.90
2023-06-29T03:51:51.327Z,2.90
2023-06-29T03:54:18.835Z,3.50
2023-06-29T03:56:46.316Z,3.60
2023-06-29T03:59:13.856Z,3.50
2023-06-29T04:01:41.376Z,3.60
2023-06-29T04:04:08.989Z,3.40
2023-06-29T04:06:36.539Z,3.70
2023-06-29T04:09:04.137Z,4.10
2023-06-29T04:11:31.594Z,3.70
2023-06-29T04:13:59.141Z,4.70
2023-06-29T04:16:26.889Z,4.00
2023-06-29T04:18:54.476Z,3.70
2023-06-29T04:21:22.017Z,5.20
2023-06-29T04:23:49.631Z,4.70
2023-06-29T04:26:17.595Z,4.70
2023-06-29T04:28:46.327Z,4.00
2023-06-29T04:31:14.151Z,4.30
2023-06-29T04:33:42.160Z,3.60
2023-06-29T04:36:14.022Z,4.00
2023-06-29T04:41:11.627Z,4.20
2023-06-29T04:43:39.686Z,4.00
2023-06-29T04:46:07.317Z,4.30
2023-06-29T04:48:38.304Z,4.40
2023-06-29T04:51:06.790Z,4.30
2023-06-29T04:53:34.948Z,4.20
2023-06-29T04:56:05.388Z,4.30
2023-06-29T04:58:33.206Z,5.10
2023-06-29T05:01:00.730Z,4.60
2023-06-29T05:03:28.476Z,5.00
2023-06-29T05:05:56.057Z,4.50
2023-06-29T05:08:23.583Z,4.40
2023-06-29T05:10:51.568Z,5.00
2023-06-29T05:13:19.112Z,5.40
2023-06-29T05:15:49.117Z,4.90
2023-06-29T05:18:17.102Z,5.40
2023-06-29T05:20:44.651Z,4.40
2023-06-29T05:23:12.928Z,5.00
2023-06-29T05:25:42.269Z,5.10
2023-06-29T05:28:10.172Z,6.30
2023-06-29T05:30:37.667Z,5.10
2023-06-29T05:33:05.518Z,6.70
2023-06-29T05:35:34.564Z,5.40
2023-06-29T05:38:02.287Z,5.80
2023-06-29T05:40:30.475Z,5.40
2023-06-29T05:42:58.055Z,6.30
2023-06-29T05:45:25.644Z,5.30
2023-06-29T05:47:53.208Z,6.40
2023-06-29T05:50:21.842Z,6.70
2023-06-29T05:52:51.135Z,6.40
2023-06-29T05:55:20.730Z,6.20
2023-06-29T05:57:48.555Z,6.50
2023-06-29T06:00:16.899Z,5.90
2023-06-29T06:02:46.125Z,5.30
2023-06-29T06:05:14.185Z,5.90
2023-06-29T06:07:41.750Z,5.70
2023-06-29T06:10:09.669Z,5.10
2023-06-29T06:12:37.244Z,6.60
2023-06-29T06:15:07.264Z,6.00
2023-06-29T06:17:34.884Z,5.40
2023-06-29T06:20:02.575Z,6.00
2023-06-29T06:22:30.126Z,5.90
2023-06-29T06:24:57.687Z,6.70
2023-06-29T06:27:25.550Z,5.50
2023-06-29T06:29:54.004Z,5.80
2023-06-29T06:32:25.656Z,6.00
2023-06-29T06:37:20.648Z,6.60
2023-06-29T06:39:48.144Z,5.10
2023-06-29T06:42:15.765Z,4.90
2023-06-29T06:44:51.837Z,5.30
2023-06-29T06:47:19.414Z,5.10
2023-06-29T06:49:47.671Z,5.00
2023-06-29T06:52:15.224Z,4.50
2023-06-29T06:54:42.930Z,3.90
2023-06-29T06:57:10.429Z,4.60
2023-06-29T06:59:37.948Z,4.40
2023-06-29T07:02:06.682Z,5.60
2023-06-29T07:04:34.511Z,4.90
2023-06-29T07:07:02.157Z,4.80
2023-06-29T07:09:29.799Z,4.50
2023-06-29T07:11:57.325Z,5.90
2023-06-29T07:14:24.871Z,4.70
2023-06-29T07:16:52.596Z,5.50
2023-06-29T07:24:21.292Z,5.20
2023-06-29T07:26:48.769Z,4.80
2023-06-29T07:29:16.408Z,4.90
2023-06-29T07:31:43.970Z,4.40
2023-06-29T07:34:11.428Z,4.70
2023-06-29T07:36:40.453Z,4.80
2023-06-29T07:39:08.357Z,5.00
2023-06-29T07:41:36.081Z,4.70
2023-06-29T07:44:03.741Z,4.70
2023-06-29T07:46:33.133Z,4.60
2023-06-29T07:49:00.792Z,4.20
2023-06-29T07:51:33.667Z,4.20
2023-06-29T07:54:02.264Z,4.20
2023-06-29T07:59:00.672Z,3.80
2023-06-29T08:01:28.279Z,4.00
2023-06-29T08:04:01.289Z,4.20
2023-06-29T08:09:04.577Z,4.50
2023-06-29T08:11:32.146Z,3.80
2023-06-29T08:13:59.685Z,3.30
2023-06-29T08:16:27.311Z,3.80
2023-06-29T08:18:54.893Z,3.60
2023-06-29T08:21:22.466Z,3.40
2023-06-29T08:23:51.931Z,3.30
2023-06-29T08:26:19.691Z,3.60
2023-06-29T08:28:47.322Z,3.70
2023-06-29T08:31:15.939Z,3.50
2023-06-29T08:33:44.233Z,3.90
2023-06-29T08:36:11.906Z,3.70
2023-06-29T08:38:39.372Z,3.70
2023-06-29T08:41:07.217Z,3.40
2023-06-29T08:43:34.775Z,3.40
2023-06-29T08:46:03.697Z,3.60
2023-06-29T08:48:32.201Z,4.00
2023-06-29T08:51:04.199Z,3.40
2023-06-29T08:53:32.008Z,3.50
2023-06-29T08:55:59.673Z,3.80
2023-06-29T08:58:27.322Z,3.70
2023-06-29T09:00:55.102Z,3.70
2023-06-29T09:03:23.742Z,3.80
2023-06-29T09:05:51.909Z,5.80
2023-06-29T09:08:20.600Z,4.90
2023-06-29T09:10:48.867Z,4.20
2023-06-29T09:13:16.524Z,3.60
2023-06-29T09:15:44.934Z,4.10
2023-06-29T09:18:12.871Z,4.10
2023-06-29T09:20:40.481Z,4.50
2023-06-29T09:23:08.006Z,4.20
2023-06-29T09:25:39.227Z,3.80
2023-06-29T09:30:39.369Z,4.00
2023-06-29T09:33:11.808Z,4.40
2023-06-29T09:35:41.333Z,4.20
2023-06-29T09:38:08.950Z,4.10
2023-06-29T09:40:53.788Z,4.00
2023-06-29T09:43:29.396Z,3.60
2023-06-29T09:46:15.281Z,4.00
2023-06-29T09:51:26.358Z,3.90
2023-06-29T09:53:54.006Z,4.60
2023-06-29T09:56:21.541Z,4.90
2023-06-29T09:58:49.550Z,5.30
2023-06-29T10:01:17.948Z,5.50
2023-06-29T10:03:45.981Z,5.30
2023-06-29T10:06:19.399Z,6.00
2023-06-29T10:08:46.910Z,5.20
2023-06-29T10:11:14.589Z,5.30
2023-06-29T10:13:44.737Z,5.00
2023-06-29T10:16:12.434Z,4.60
2023-06-29T10:18:42.626Z,4.80
2023-06-29T10:21:10.336Z,3.90
2023-06-29T10:23:37.901Z,4.00
2023-06-29T10:26:05.447Z,3.90
2023-06-29T10:28:33.161Z,4.70
2023-06-29T10:31:01.341Z,3.80
2023-06-29T10:33:29.318Z,4.40
2023-06-29T10:36:02.756Z,3.70
2023-06-29T10:38:36.884Z,4.00
2023-06-29T10:41:07.991Z,4.00
2023-06-29T10:44:01.456Z,4.70
2023-06-29T10:46:43.464Z,4.00
2023-06-29T10:49:30.020Z,4.20
2023-06-29T10:52:04.916Z,3.90
2023-06-29T10:54:32.768Z,3.90
2023-06-29T10:57:02.007Z,3.90
2023-06-29T10:59:29.810Z,3.50
2023-06-29T11:01:57.371Z,4.20
2023-06-29T11:04:33.352Z,3.20
2023-06-29T11:07:10.140Z,3.00
2023-06-29T11:09:37.890Z,2.50
2023-06-29T11:12:05.725Z,2.90
2023-06-29T11:14:38.216Z,2.90
2023-06-29T11:17:09.487Z,2.90
2023-06-29T11:19:36.960Z,3.20
2023-06-29T11:22:04.988Z,3.40
2023-06-29T11:24:32.563Z,3.10
2023-06-29T11:27:00.060Z,3.00
2023-06-29T11:29:28.670Z,3.00
2023-06-29T11:31:56.173Z,3.00
2023-06-29T11:34:23.829Z,3.20
2023-06-29T11:37:09.046Z,3.10
2023-06-29T11:39:39.188Z,3.20
2023-06-29T11:42:10.341Z,2.90
2023-06-29T11:44:38.022Z,3.20
2023-06-29T11:47:25.550Z,3.20
2023-06-29T11:49:55.640Z,3.20
2023-06-29T11:52:23.626Z,3.00
2023-06-29T11:54:51.976Z,3.40
2023-06-29T11:57:19.657Z,3.90
2023-06-29T11:59:48.116Z,5.10
2023-06-29T12:02:19.115Z,4.60
2023-06-29T12:04:57.907Z,4.80
2023-06-29T12:07:45.901Z,4.30
2023-06-29T12:10:37.421Z,3.80
2023-06-29T12:13:05.136Z,4.30
2023-06-29T12:15:33.949Z,4.10
2023-06-29T12:18:15.887Z,3.80
2023-06-29T12:20:45.605Z,4.70
2023-06-29T12:23:16.411Z,4.50
2023-06-29T12:25:45.776Z,4.40
2023-06-29T12:28:14.141Z,3.70
2023-06-29T12:30:42.079Z,3.60
2023-06-29T12:33:11.145Z,4.00
2023-06-29T12:35:38.760Z,3.10
2023-06-29T12:38:06.980Z,4.00
2023-06-29T12:40:34.751Z,3.80
2023-06-29T12:43:02.517Z,3.70
2023-06-29T12:45:30.120Z,3.70
2023-06-29T12:47:57.762Z,3.60
2023-06-29T12:50:25.623Z,3.70
2023-06-29T12:52:53.270Z,3.70
2023-06-29T12:55:20.877Z,3.70
2023-06-29T12:57:48.590Z,3.40
2023-06-29T13:00:19.871Z,3.80
2023-06-29T13:02:48.692Z,4.40
2023-06-29T13:05:16.537Z,4.30
2023-06-29T13:07:44.583Z,4.30
2023-06-29T13:10:15.127Z,4.90
2023-06-29T13:12:43.002Z,4.90
2023-06-29T13:15:11.139Z,4.30
2023-06-29T13:17:38.772Z,4.30
2023-06-29T13:20:07.317Z,5.10
2023-06-29T13:22:35.530Z,6.50
2023-06-29T13:25:03.513Z,5.30
2023-06-29T13:27:31.201Z,5.00
2023-06-29T13:29:58.720Z,4.20
2023-06-29T13:32:26.568Z,4.00
2023-06-29T13:34:54.120Z,4.70
2023-06-29T13:37:23.610Z,4.00
2023-06-29T13:39:51.154Z,4.10
2023-06-29T13:42:18.729Z,3.40
2023-06-29T13:44:46.571Z,3.80
2023-06-29T13:47:20.850Z,3.80
2023-06-29T13:49:48.507Z,3.40
2023-06-29T13:52:16.080Z,4.00
2023-06-29T13:54:43.963Z,4.20
2023-06-29T13:57:11.804Z,4.00
2023-06-29T13:59:39.661Z,3.20
2023-06-29T14:02:08.059Z,3.80
2023-06-29T14:04:35.989Z,3.00
2023-06-29T14:07:03.711Z,2.50
2023-06-29T14:09:31.470Z,2.70
2023-06-29T14:11:59.267Z,2.60
2023-06-29T14:14:27.093Z,3.00
2023-06-29T14:16:54.674Z,2.80
2023-06-29T14:19:22.431Z,2.80
2023-06-29T14:21:49.903Z,2.60
2023-06-29T14:36:22.811Z,2.40
2023-06-29T14:38:51.922Z,2.90
2023-06-29T14:41:21.066Z,2.60
2023-06-29T14:43:48.672Z,2.00
2023-06-29T14:46:16.281Z,2.40
2023-06-29T14:48:44.163Z,2.30
2023-06-29T14:51:11.876Z,2.20
2023-06-29T14:53:39.447Z,2.60
2023-06-29T14:56:08.394Z,2.50
2023-06-29T14:58:36.481Z,2.50
2023-06-29T15:03:34.937Z,2.30
2023-06-29T15:06:02.535Z,2.70
2023-06-29T15:08:30.275Z,2.50
2023-06-29T15:10:57.863Z,2.60
2023-06-29T15:13:25.523Z,2.60
2023-06-29T15:15:53.226Z,2.30
2023-06-29T15:18:20.845Z,2.80
2023-06-29T15:20:49.178Z,2.50
2023-06-29T15:23:16.844Z,3.10
2023-06-29T15:25:46.167Z,2.80
2023-06-29T15:28:14.153Z,3.10
2023-06-29T15:30:52.856Z,2.70
2023-06-29T15:33:21.621Z,2.70
2023-06-29T15:35:49.637Z,2.90
2023-06-29T15:38:19.028Z,5.10
2023-06-29T15:40:49.080Z,3.40
2023-06-29T15:43:16.659Z,3.00
2023-06-29T15:45:44.514Z,3.50
2023-06-29T15:48:12.495Z,3.10
2023-06-29T15:50:40.200Z,2.70
2023-06-29T15:53:08.046Z,3.00
2023-06-29T15:55:35.847Z,3.00
2023-06-29T15:58:03.617Z,3.50
2023-06-29T16:00:31.261Z,2.90
2023-06-29T16:02:59.008Z,3.70
2023-06-29T16:05:26.593Z,3.80
2023-06-29T16:07:54.264Z,3.20
2023-06-29T16:10:21.819Z,3.20
2023-06-29T16:12:49.511Z,4.10
2023-06-29T16:15:18.349Z,3.70
2023-06-29T16:17:45.992Z,4.40
2023-06-29T16:20:13.626Z,3.50
2023-06-29T16:22:41.343Z,4.10
2023-06-29T16:25:09.597Z,4.80
2023-06-29T16:27:37.154Z,4.30
2023-06-29T16:30:05.996Z,5.30
2023-06-29T16:32:33.646Z,4.10
2023-06-29T16:35:01.322Z,4.40
2023-06-29T16:37:28.923Z,4.10
2023-06-29T16:39:56.638Z,4.10
2023-06-29T16:42:24.125Z,4.50
2023-06-29T16:44:51.732Z,4.10
2023-06-29T16:47:19.338Z,4.80
2023-06-29T16:49:47.026Z,4.50
2023-06-29T16:52:16.006Z,4.30
2023-06-29T16:54:43.619Z,4.40
2023-06-29T16:57:11.215Z,4.10
2023-06-29T16:59:39.021Z,3.50
2023-06-29T17:02:06.754Z,3.60
2023-06-29T17:04:34.389Z,3.40
2023-06-29T17:07:02.103Z,6.40
2023-06-29T17:09:29.834Z,4.30
2023-06-29T17:11:57.395Z,3.70
2023-06-29T17:14:24.940Z,4.00
2023-06-29T17:16:54.298Z,3.90
2023-06-29T17:19:22.081Z,3.60
2023-06-29T17:21:49.545Z,3.00
2023-06-29T17:24:17.324Z,3.40
2023-06-29T17:26:44.920Z,3.20
2023-06-29T17:29:12.416Z,3.20
2023-06-29T17:31:39.956Z,3.80
2023-06-29T17:34:07.595Z,3.40
2023-06-29T17:36:35.871Z,4.60
2023-06-29T17:39:03.541Z,3.80
2023-06-29T17:41:31.194Z,3.30
2023-06-29T17:43:58.763Z,3.60
2023-06-29T17:46:26.430Z,3.40
2023-06-29T17:48:54.049Z,3.40
2023-06-29T17:51:22.267Z,3.30
2023-06-29T17:53:49.857Z,3.50
2023-06-29T17:57:21.080Z,3.50
2023-06-29T17:59:48.850Z,3.20
2023-06-29T18:02:16.959Z,3.30
2023-06-29T18:04:44.571Z,11.80
2023-06-29T18:07:12.482Z,5.50
2023-06-29T18:09:40.127Z,4.40
2023-06-29T18:12:08.074Z,4.00
2023-06-29T18:14:35.579Z,3.90
2023-06-29T18:17:04.741Z,4.10
2023-06-29T18:19:32.269Z,6.30
2023-06-29T18:21:59.895Z,5.10
2023-06-29T18:24:27.535Z,4.50
2023-06-29T18:26:55.382Z,6.00
2023-06-29T18:29:23.016Z,4.20
2023-06-29T18:31:50.685Z,4.70
2023-06-29T18:34:18.545Z,4.90
2023-06-29T18:36:46.293Z,4.40
2023-06-29T18:39:15.436Z,4.50
2023-06-29T18:41:43.558Z,4.40
2023-06-29T18:44:14.019Z,4.50
2023-06-29T18:46:43.648Z,4.40
2023-06-29T18:49:11.405Z,4.80
2023-06-29T18:51:38.969Z,5.00
2023-06-29T18:54:07.061Z,5.50
2023-06-29T18:56:34.688Z,4.60
2023-06-29T18:59:02.454Z,4.70
2023-06-29T19:01:30.338Z,4.70
2023-06-29T19:03:58.159Z,5.10
2023-06-29T19:06:26.252Z,4.70
2023-06-29T19:08:53.938Z,5.10
2023-06-29T19:11:21.682Z,5.00
2023-06-29T19:13:49.367Z,5.20
2023-06-29T19:16:17.247Z,4.80
2023-06-29T19:18:44.954Z,4.60
2023-06-29T19:21:14.558Z,5.50
2023-06-29T19:23:45.735Z,4.30
2023-06-29T19:26:14.510Z,4.90
2023-06-29T19:28:42.241Z,4.50
2023-06-29T19:31:09.765Z,4.50
2023-06-29T19:33:38.415Z,4.60
2023-06-29T19:36:06.133Z,5.10
2023-06-29T19:38:33.625Z,4.70
2023-06-29T19:41:03.379Z,5.10
2023-06-29T19:43:32.320Z,5.50
2023-06-29T19:48:53.017Z,5.10
2023-06-29T19:51:20.984Z,5.30
2023-06-29T19:53:48.616Z,5.20
2023-06-29T19:56:16.471Z,4.90
2023-06-29T19:58:44.284Z,11.00
2023-06-29T20:01:11.855Z,5.50
2023-06-29T20:03:39.636Z,5.20
2023-06-29T20:06:10.467Z,4.70
2023-06-29T20:08:38.581Z,5.00
2023-06-29T20:11:06.354Z,5.20
2023-06-29T20:13:48.223Z,4.80
2023-06-29T20:16:25.995Z,5.60
2023-06-29T20:18:53.841Z,5.90
2023-06-29T20:21:21.498Z,5.00
2023-06-29T20:23:51.999Z,5.60
2023-06-29T20:27:32.787Z,5.50
2023-06-29T20:30:00.457Z,5.60
2023-06-29T20:32:28.179Z,5.80
2023-06-29T20:34:55.755Z,5.90
2023-06-29T20:37:23.291Z,5.50
2023-06-29T20:39:50.745Z,5.30
2023-06-29T20:42:18.309Z,5.30
2023-06-29T20:44:49.518Z,5.50
2023-06-29T20:47:18.150Z,5.90
2023-06-29T20:49:45.677Z,5.00
2023-06-29T20:52:13.252Z,4.90
2023-06-29T20:54:40.758Z,5.10
2023-06-29T20:57:10.386Z,5.80
2023-06-29T20:59:37.914Z,6.20
2023-06-29T21:02:05.767Z,6.10
2023-06-29T21:04:33.713Z,5.90
2023-06-29T21:07:01.555Z,5.30
2023-06-29T21:09:29.180Z,5.10
2023-06-29T21:11:56.857Z,5.10
2023-06-29T21:14:24.596Z,4.90
2023-06-29T21:16:52.461Z,4.80
2023-06-29T21:19:20.228Z,5.70
2023-06-29T21:21:48.061Z,5.40
2023-06-29T21:24:15.765Z,4.80
2023-06-29T21:26:43.320Z,5.30
2023-06-29T21:29:27.700Z,5.40
2023-06-29T21:32:00.692Z,5.00
2023-06-29T21:34:28.331Z,4.50
2023-06-29T21:36:56.526Z,4.40
2023-06-29T21:39:24.139Z,4.70
2023-06-29T21:41:51.882Z,4.70
2023-06-29T21:44:19.407Z,4.60
2023-06-29T21:46:47.046Z,5.00
2023-06-29T21:49:15.266Z,4.50
2023-06-29T21:51:42.767Z,4.10
2023-06-29T21:54:11.048Z,4.00
2023-06-29T21:56:41.603Z,4.50
2023-06-29T21:59:09.303Z,4.30
2023-06-29T22:01:37.004Z,5.00
2023-06-29T22:04:04.878Z,4.10
2023-06-29T22:06:32.478Z,4.40
2023-06-29T22:09:04.358Z,4.10
2023-06-29T22:11:32.121Z,4.30
2023-06-29T22:13:59.616Z,4.90
2023-06-29T22:16:27.521Z,4.10
2023-06-29T22:18:56.057Z,4.70
2023-06-29T22:21:25.529Z,6.60
2023-06-29T22:23:53.479Z,5.40
2023-06-29T22:26:21.392Z,4.40
2023-06-29T22:28:49.212Z,4.40
2023-06-29T22:34:04.200Z,4.30
2023-06-29T22:36:31.847Z,4.60
2023-06-29T22:38:59.572Z,4.60
2023-06-29T22:41:27.277Z,5.20
2023-06-29T22:43:58.493Z,4.70
2023-06-29T22:46:28.969Z,4.90
2023-06-29T22:48:56.684Z,5.50
2023-06-29T22:51:25.415Z,5.40
2023-06-29T22:53:53.377Z,5.70
2023-06-29T22:56:22.164Z,5.20
2023-06-29T22:59:13.114Z,5.00
2023-06-29T23:01:40.812Z,5.30
2023-06-29T23:04:08.791Z,5.20
2023-06-29T23:06:42.351Z,5.10
2023-06-29T23:09:10.044Z,5.20
2023-06-29T23:11:37.950Z,5.60
2023-06-29T23:14:06.044Z,5.70
2023-06-29T23:16:33.847Z,5.20
2023-06-29T23:19:01.756Z,5.60
2023-06-29T23:21:29.355Z,5.20
2023-06-29T23:23:57.067Z,6.00
2023-06-29T23:26:24.579Z,5.60
2023-06-29T23:28:52.795Z,5.40
2023-06-29T23:31:21.861Z,5.40
2023-06-29T23:33:49.851Z,5.50
2023-06-29T23:39:05.553Z,5.60
2023-06-29T23:41:34.905Z,5.40
2023-06-29T23:44:09.392Z,5.20
2023-06-29T23:46:48.583Z,5.30
2023-06-29T23:49:19.448Z,5.00
2023-06-29T23:51:48.616Z,5.10
2023-06-29T23:54:16.587Z,4.70
2023-06-29T23:56:46.143Z,5.40
2023-06-29T23:59:13.847Z,4.80
